Terminal Aerodrome Forecast
Issued by NWS Charleston, WV

Current Version | Previous Version | Text Only | Print | Product List | Glossary Off
Versions: 1 2 3 4 5 6 7 8 9 10 11 12 13 14 15 16 17 18 19 20 21 22 23 24 25 26

000
FTUS41 KRLX 290834 AAB
TAFEKN
TAF AMD
KEKN 290834Z 2909/3006 00000KT 1/2SM FG BKN001
     FM291100 VRB03KT 1SM BR SCT001
     FM291200 VRB03KT 4SM BR SCT100
     FM291500 VRB03KT P6SM BKN035 BKN080
     FM291700 18004KT 5SM SHRA VCTS BKN035CB
     FM300200 VRB03KT 6SM BR SCT035 BKN080=

USA.gov is the U.S. government's official web portal to all federal, state and local government web resources and services.